createdAt,value
2023-02-11T00:01:26.903Z,16.30
2023-02-11T00:03:55.835Z,16.77
2023-02-11T00:06:24.945Z,16.60
2023-02-11T00:08:52.922Z,15.52
2023-02-11T00:11:24.618Z,16.63
2023-02-11T00:13:53.083Z,16.38
2023-02-11T00:16:21.792Z,15.60
2023-02-11T00:18:50.543Z,17.02
2023-02-11T00:21:21.828Z,17.48
2023-02-11T00:23:49.959Z,17.38
2023-02-11T00:26:21.669Z,15.93
2023-02-11T00:28:52.231Z,17.95
2023-02-11T00:31:22.598Z,19.08
2023-02-11T00:33:51.449Z,17.38
2023-02-11T00:36:27.305Z,17.98
2023-02-11T00:38:57.416Z,16.92
2023-02-11T00:41:26.288Z,17.77
2023-02-11T00:43:54.256Z,18.40
2023-02-11T00:46:22.938Z,17.35
2023-02-11T00:48:57.984Z,17.90
2023-02-11T00:51:27.853Z,17.15
2023-02-11T00:53:55.871Z,16.00
2023-02-11T00:56:24.327Z,17.58
2023-02-11T00:58:52.329Z,16.35
2023-02-11T01:01:20.519Z,17.02
2023-02-11T01:03:48.510Z,16.88
2023-02-11T01:06:17.053Z,16.08
2023-02-11T01:08:44.977Z,16.50
2023-02-11T01:11:15.954Z,16.75
2023-02-11T01:13:47.021Z,16.38
2023-02-11T01:16:17.703Z,17.10
2023-02-11T01:18:46.588Z,15.38
2023-02-11T01:21:15.165Z,16.35
2023-02-11T01:23:44.254Z,16.20
2023-02-11T01:26:13.150Z,16.13
2023-02-11T01:28:41.568Z,16.75
2023-02-11T01:31:09.948Z,17.02
2023-02-11T01:33:38.120Z,16.88
2023-02-11T01:36:08.123Z,16.70
2023-02-11T01:38:36.630Z,16.15
2023-02-11T01:41:10.521Z,17.10
2023-02-11T01:43:43.476Z,17.02
2023-02-11T01:46:18.602Z,18.08
2023-02-11T01:48:52.272Z,17.48
2023-02-11T01:51:30.897Z,16.02
2023-02-11T01:54:17.857Z,16.70
2023-02-11T01:57:08.305Z,17.73
2023-02-11T02:00:05.763Z,17.20
2023-02-11T02:02:43.771Z,15.95
2023-02-11T02:05:52.232Z,16.52
2023-02-11T02:08:39.744Z,15.25
2023-02-11T02:11:08.207Z,15.52
2023-02-11T02:13:38.485Z,15.90
2023-02-11T02:16:12.684Z,17.15
2023-02-11T02:18:50.053Z,15.45
2023-02-11T02:21:44.644Z,14.93
2023-02-11T02:24:33.648Z,15.52
2023-02-11T02:27:04.561Z,15.40
2023-02-11T02:29:53.872Z,16.33
2023-02-11T02:32:40.576Z,15.77
2023-02-11T02:35:42.861Z,16.70
2023-02-11T02:38:21.461Z,14.48
2023-02-11T02:40:55.331Z,15.60
2023-02-11T02:43:26.432Z,15.88
2023-02-11T02:45:54.761Z,15.07
2023-02-11T02:48:36.056Z,14.85
2023-02-11T02:51:33.087Z,15.27
2023-02-11T02:54:33.535Z,14.50
2023-02-11T02:57:22.917Z,14.73
2023-02-11T02:59:59.858Z,14.75
2023-02-11T03:02:35.257Z,15.90
2023-02-11T03:05:16.756Z,15.05
2023-02-11T03:08:08.649Z,16.33
2023-02-11T03:10:41.048Z,15.80
2023-02-11T03:13:09.119Z,12.40
2023-02-11T03:15:44.785Z,14.88
2023-02-11T03:18:16.453Z,14.68
2023-02-11T03:20:48.384Z,15.90
2023-02-11T03:23:28.187Z,15.45
2023-02-11T03:26:34.875Z,14.52
2023-02-11T03:29:03.754Z,16.48
2023-02-11T03:31:40.767Z,15.48
2023-02-11T03:34:35.121Z,14.90
2023-02-11T03:37:02.965Z,16.27
2023-02-11T03:39:39.643Z,15.48
2023-02-11T03:42:11.046Z,15.93
2023-02-11T03:44:50.427Z,16.45
2023-02-11T03:47:23.974Z,14.18
2023-02-11T03:49:53.695Z,14.65
2023-02-11T03:52:23.548Z,15.52
2023-02-11T03:54:56.466Z,15.88
2023-02-11T03:57:24.646Z,15.82
2023-02-11T03:59:54.082Z,14.82
2023-02-11T04:02:27.244Z,16.67
2023-02-11T04:04:55.887Z,15.77
2023-02-11T04:07:24.568Z,16.08
2023-02-11T04:09:53.265Z,15.73
2023-02-11T04:12:21.397Z,16.25
2023-02-11T04:14:49.254Z,16.70
2023-02-11T04:17:17.635Z,16.23
2023-02-11T04:19:45.575Z,15.30
2023-02-11T04:22:13.585Z,15.30
2023-02-11T04:24:41.585Z,16.98
2023-02-11T04:27:09.915Z,17.00
2023-02-11T04:29:37.975Z,16.77
2023-02-11T04:32:06.152Z,17.75
2023-02-11T04:34:34.095Z,19.23
2023-02-11T04:37:01.949Z,18.90
2023-02-11T04:39:29.885Z,18.92
2023-02-11T04:41:57.699Z,19.95
2023-02-11T04:44:25.642Z,21.02
2023-02-11T04:46:53.861Z,22.20
2023-02-11T04:49:21.984Z,23.83
2023-02-11T04:51:49.879Z,24.92
2023-02-11T04:54:18.228Z,24.35
2023-02-11T04:56:46.080Z,24.23
2023-02-11T04:59:13.980Z,25.27
2023-02-11T05:01:42.347Z,30.05
2023-02-11T05:04:10.325Z,31.17
2023-02-11T05:06:40.058Z,40.00
2023-02-11T05:09:08.316Z,45.60
2023-02-11T05:11:37.248Z,46.65
2023-02-11T05:14:05.854Z,49.13
2023-02-11T05:16:34.547Z,64.38
2023-02-11T05:19:02.348Z,70.55
2023-02-11T05:21:30.210Z,67.80
2023-02-11T05:23:58.108Z,59.05
2023-02-11T05:26:26.663Z,57.47
2023-02-11T05:28:54.428Z,71.68
2023-02-11T05:31:22.349Z,68.28
2023-02-11T05:33:50.227Z,76.60
2023-02-11T05:36:18.117Z,82.70
2023-02-11T05:38:45.877Z,93.35
2023-02-11T05:41:13.678Z,94.70
2023-02-11T05:43:41.495Z,109.85
2023-02-11T05:46:09.455Z,112.38
2023-02-11T05:48:37.342Z,100.30
2023-02-11T05:51:05.329Z,111.05
2023-02-11T05:53:33.118Z,101.78
2023-02-11T05:56:01.438Z,112.32
2023-02-11T05:58:29.450Z,103.00
2023-02-11T06:00:57.377Z,98.30
2023-02-11T06:03:25.466Z,93.28
2023-02-11T06:05:53.538Z,96.57
2023-02-11T06:08:21.637Z,99.47
2023-02-11T06:10:49.488Z,98.20
2023-02-11T06:13:18.867Z,76.30
2023-02-11T06:15:59.582Z,73.68
2023-02-11T06:18:27.658Z,70.18
2023-02-11T06:20:56.216Z,70.40
2023-02-11T06:23:24.049Z,74.18
2023-02-11T06:25:52.999Z,73.20
2023-02-11T06:28:21.233Z,71.93
2023-02-11T06:30:49.287Z,72.68
2023-02-11T06:33:17.220Z,71.28
2023-02-11T06:35:45.091Z,70.45
2023-02-11T06:38:13.060Z,68.53
2023-02-11T06:40:41.138Z,70.87
2023-02-11T06:43:08.997Z,76.00
2023-02-11T06:45:36.850Z,70.53
2023-02-11T06:48:04.819Z,72.10
2023-02-11T06:50:32.960Z,72.15
2023-02-11T06:53:00.945Z,76.53
2023-02-11T06:55:28.939Z,78.05
2023-02-11T06:57:57.014Z,78.13
2023-02-11T07:00:25.799Z,75.35
2023-02-11T07:02:53.898Z,78.28
2023-02-11T07:05:21.889Z,76.70
2023-02-11T07:07:49.846Z,77.65
2023-02-11T07:10:17.788Z,80.95
2023-02-11T07:12:45.854Z,81.18
2023-02-11T07:15:13.779Z,77.38
2023-02-11T07:17:41.691Z,78.10
2023-02-11T07:20:12.602Z,77.82
2023-02-11T07:22:40.500Z,71.88
2023-02-11T07:25:08.525Z,77.25
2023-02-11T07:27:36.598Z,76.88
2023-02-11T07:30:07.260Z,73.13
2023-02-11T07:32:35.444Z,65.20
2023-02-11T07:35:04.379Z,66.65
2023-02-11T07:37:34.784Z,60.33
2023-02-11T07:40:02.842Z,52.45
2023-02-11T07:42:30.716Z,46.47
2023-02-11T07:44:58.569Z,43.58
2023-02-11T07:47:26.521Z,45.83
2023-02-11T07:49:56.554Z,45.10
2023-02-11T07:52:24.966Z,46.25
2023-02-11T07:54:52.867Z,45.28
2023-02-11T07:57:20.822Z,42.13
2023-02-11T07:59:48.669Z,38.80
2023-02-11T08:02:16.591Z,40.55
2023-02-11T08:04:47.226Z,36.33
2023-02-11T08:07:16.979Z,35.90
2023-02-11T08:09:45.254Z,34.92
2023-02-11T08:12:13.304Z,32.40
2023-02-11T08:14:41.116Z,32.35
2023-02-11T08:17:08.915Z,30.42
2023-02-11T08:19:37.362Z,32.40
2023-02-11T08:22:05.268Z,32.20
2023-02-11T08:24:33.138Z,29.85
2023-02-11T08:27:00.953Z,30.27
2023-02-11T08:29:28.780Z,29.65
2023-02-11T08:31:56.738Z,27.13
2023-02-11T08:34:24.743Z,28.13
2023-02-11T08:36:52.711Z,28.15
2023-02-11T08:39:22.948Z,27.80
2023-02-11T08:41:56.832Z,27.92
2023-02-11T08:44:25.146Z,27.42
2023-02-11T08:46:53.940Z,25.13
2023-02-11T08:49:23.672Z,23.77
2023-02-11T08:51:51.673Z,22.50
2023-02-11T08:54:19.653Z,27.23
2023-02-11T08:56:52.301Z,26.17
2023-02-11T08:59:20.363Z,27.50
2023-02-11T09:01:48.693Z,25.25
2023-02-11T09:04:16.735Z,25.33
2023-02-11T09:06:44.639Z,25.63
2023-02-11T09:09:14.212Z,25.92
2023-02-11T09:11:43.312Z,26.38
2023-02-11T09:14:23.275Z,25.08
2023-02-11T09:16:51.963Z,25.10
2023-02-11T09:19:20.670Z,23.83
2023-02-11T09:21:48.607Z,25.15
2023-02-11T09:24:16.508Z,26.00
2023-02-11T09:26:44.727Z,24.45
2023-02-11T09:29:13.115Z,24.90
2023-02-11T09:31:41.108Z,24.27
2023-02-11T09:34:09.082Z,21.63
2023-02-11T09:36:39.291Z,21.35
2023-02-11T09:39:18.449Z,22.35
2023-02-11T09:41:46.262Z,22.40
2023-02-11T09:44:40.384Z,23.77
2023-02-11T09:47:30.238Z,23.00
2023-02-11T09:50:14.630Z,23.35
2023-02-11T09:53:07.374Z,25.05
2023-02-11T09:55:44.134Z,24.15
2023-02-11T09:58:35.346Z,24.02
2023-02-11T10:01:22.826Z,25.52
2023-02-11T10:04:05.153Z,25.40
2023-02-11T10:06:41.480Z,21.23
2023-02-11T10:09:43.080Z,19.42
2023-02-11T10:12:13.775Z,22.00
2023-02-11T10:15:11.471Z,22.52
2023-02-11T10:18:04.831Z,27.83
2023-02-11T10:20:49.336Z,23.85
2023-02-11T10:23:24.949Z,22.52
2023-02-11T10:25:54.971Z,23.23
2023-02-11T10:28:37.104Z,21.42
2023-02-11T10:31:11.979Z,21.23
2023-02-11T10:34:05.188Z,21.30
2023-02-11T10:36:40.181Z,21.63
2023-02-11T10:39:27.120Z,23.45
2023-02-11T10:41:59.915Z,23.58
2023-02-11T10:44:38.380Z,24.45
2023-02-11T10:47:22.767Z,25.45
2023-02-11T10:49:50.828Z,21.65
2023-02-11T10:52:24.861Z,25.38
2023-02-11T10:55:03.409Z,23.50
2023-02-11T10:57:38.163Z,23.27
2023-02-11T11:00:39.367Z,23.58
2023-02-11T11:03:29.122Z,23.00
2023-02-11T11:06:00.749Z,23.08
2023-02-11T11:08:47.554Z,25.65
2023-02-11T11:11:21.752Z,24.65
2023-02-11T11:13:52.731Z,25.80
2023-02-11T11:16:32.875Z,26.48
2023-02-11T11:19:06.571Z,26.60
2023-02-11T11:21:41.077Z,25.58
2023-02-11T11:24:16.901Z,26.23
2023-02-11T11:26:57.400Z,24.95
2023-02-11T11:29:35.840Z,24.02
2023-02-11T11:32:15.296Z,24.23
2023-02-11T11:34:48.904Z,22.95
2023-02-11T11:37:37.189Z,22.85
2023-02-11T11:40:23.776Z,20.35
2023-02-11T11:43:14.321Z,28.40
2023-02-11T11:45:56.746Z,23.73
2023-02-11T11:48:46.004Z,23.80
2023-02-11T11:51:13.996Z,24.23
2023-02-11T11:54:04.992Z,24.40
2023-02-11T11:56:37.092Z,24.20
2023-02-11T11:59:17.406Z,24.45
2023-02-11T12:02:02.394Z,24.95
2023-02-11T12:05:01.085Z,24.50
2023-02-11T12:07:56.802Z,25.55
2023-02-11T12:10:46.505Z,25.23
2023-02-11T12:13:32.685Z,25.77
2023-02-11T12:16:21.815Z,26.60
2023-02-11T12:19:17.262Z,24.63
2023-02-11T12:22:21.992Z,25.80
2023-02-11T12:25:08.242Z,26.45
2023-02-11T12:28:10.052Z,25.20
2023-02-11T12:30:57.185Z,25.83
2023-02-11T12:33:40.412Z,25.17
2023-02-11T12:36:15.316Z,24.35
2023-02-11T12:39:19.487Z,23.73
2023-02-11T12:45:28.042Z,22.85
2023-02-11T12:48:26.495Z,24.08
2023-02-11T12:51:21.757Z,24.85
2023-02-11T12:54:24.129Z,23.02
2023-02-11T12:56:54.934Z,23.20
2023-02-11T12:59:25.495Z,23.23
2023-02-11T13:01:55.262Z,22.55
2023-02-11T13:04:29.235Z,23.17
2023-02-11T13:07:02.886Z,23.48
2023-02-11T13:09:39.397Z,21.92
2023-02-11T13:12:47.499Z,18.27
2023-02-11T13:15:16.595Z,16.90
2023-02-11T13:17:57.589Z,15.98
2023-02-11T13:20:36.184Z,15.95
2023-02-11T13:23:24.528Z,13.70
2023-02-11T13:26:05.838Z,14.57
2023-02-11T13:28:54.218Z,14.10
2023-02-11T13:31:27.096Z,16.15
2023-02-11T13:33:55.278Z,18.00
2023-02-11T13:36:26.579Z,13.00
2023-02-11T13:38:58.846Z,13.27
2023-02-11T13:41:31.309Z,13.40
2023-02-11T13:44:06.383Z,12.38
2023-02-11T13:46:59.499Z,15.23
2023-02-11T13:49:32.049Z,32.97
2023-02-11T13:52:03.785Z,14.98
2023-02-11T13:54:40.815Z,19.10
2023-02-11T13:57:20.565Z,13.20
2023-02-11T13:59:49.624Z,12.57
2023-02-11T14:02:36.150Z,11.27
2023-02-11T14:05:22.208Z,12.10
2023-02-11T14:08:41.840Z,11.82
2023-02-11T14:11:29.744Z,12.27
2023-02-11T14:14:14.732Z,12.63
2023-02-11T14:17:08.196Z,12.98
2023-02-11T14:19:44.747Z,12.70
2023-02-11T14:22:16.991Z,12.60
2023-02-11T14:25:01.299Z,13.18
2023-02-11T14:27:42.757Z,13.23
2023-02-11T14:30:23.559Z,12.65
2023-02-11T14:33:13.918Z,15.55
2023-02-11T14:36:01.898Z,14.55
2023-02-11T14:38:38.278Z,15.35
2023-02-11T14:41:21.313Z,15.40
2023-02-11T14:43:58.109Z,16.45
2023-02-11T14:46:27.988Z,15.68
2023-02-11T14:48:59.098Z,17.30
2023-02-11T14:51:40.717Z,17.42
2023-02-11T14:54:17.796Z,16.27
2023-02-11T14:56:47.079Z,17.83
2023-02-11T14:59:23.191Z,19.35
2023-02-11T15:01:54.753Z,17.80
2023-02-11T15:04:28.643Z,19.20
2023-02-11T15:06:59.678Z,22.77
2023-02-11T15:09:38.749Z,19.40
2023-02-11T15:12:15.927Z,20.52
2023-02-11T15:14:48.714Z,19.90
2023-02-11T15:17:21.348Z,19.05
2023-02-11T15:19:53.473Z,19.13
2023-02-11T15:22:26.379Z,23.87
2023-02-11T15:25:11.577Z,19.80
2023-02-11T15:30:34.476Z,20.17
2023-02-11T15:33:25.710Z,20.70
2023-02-11T15:35:53.634Z,21.10
2023-02-11T15:38:21.471Z,20.80
2023-02-11T15:40:55.669Z,20.15
2023-02-11T15:43:23.690Z,22.60
2023-02-11T15:45:51.624Z,22.38
2023-02-11T15:48:24.482Z,23.23
2023-02-11T15:51:03.315Z,22.27
2023-02-11T15:53:40.717Z,23.45
2023-02-11T15:56:18.466Z,23.05
2023-02-11T15:58:49.823Z,21.80
2023-02-11T16:01:17.890Z,23.02
2023-02-11T16:03:51.080Z,21.73
2023-02-11T16:09:11.361Z,25.08
2023-02-11T16:11:48.222Z,25.05
2023-02-11T16:14:31.285Z,27.25
2023-02-11T16:17:06.884Z,25.98
2023-02-11T16:19:36.336Z,26.60
2023-02-11T16:22:10.774Z,26.80
2023-02-11T16:24:39.733Z,26.67
2023-02-11T16:27:22.870Z,25.95
2023-02-11T16:29:52.180Z,24.95
2023-02-11T16:32:23.504Z,26.05
2023-02-11T16:34:52.673Z,25.98
2023-02-11T16:37:21.016Z,27.15
2023-02-11T16:39:48.933Z,25.08
2023-02-11T16:42:16.935Z,25.38
2023-02-11T16:44:44.866Z,26.30
2023-02-11T16:47:23.979Z,24.58
2023-02-11T16:49:52.277Z,24.67
2023-02-11T16:52:21.979Z,26.55
2023-02-11T16:54:49.961Z,26.35
2023-02-11T16:57:23.443Z,25.50
2023-02-11T16:59:52.523Z,26.63
2023-02-11T17:02:36.161Z,26.02
2023-02-11T17:05:07.303Z,26.58
2023-02-11T17:07:35.683Z,26.52
2023-02-11T17:10:03.897Z,27.02
2023-02-11T17:12:31.841Z,25.27
2023-02-11T17:15:00.041Z,26.73
2023-02-11T17:17:29.533Z,27.08
2023-02-11T17:19:57.553Z,25.90
2023-02-11T17:22:25.424Z,26.05
2023-02-11T17:24:56.076Z,25.95
2023-02-11T17:27:23.948Z,26.55
2023-02-11T17:29:51.902Z,25.80
2023-02-11T17:32:19.867Z,25.63
2023-02-11T17:34:47.987Z,26.42
2023-02-11T17:37:16.381Z,26.58
2023-02-11T17:39:44.903Z,28.00
2023-02-11T17:42:15.305Z,28.45
2023-02-11T17:44:44.580Z,28.23
2023-02-11T17:47:14.024Z,28.95
2023-02-11T17:49:42.318Z,27.42
2023-02-11T17:52:10.381Z,29.25
2023-02-11T17:54:38.755Z,29.02
2023-02-11T17:57:06.940Z,29.13
2023-02-11T17:59:35.837Z,27.90
2023-02-11T18:02:04.376Z,29.27
2023-02-11T18:04:32.374Z,28.27
2023-02-11T18:07:00.349Z,28.88
2023-02-11T18:09:28.288Z,29.67
2023-02-11T18:11:56.229Z,33.60
2023-02-11T18:14:24.519Z,32.78
2023-02-11T18:16:53.332Z,32.38
2023-02-11T18:19:21.714Z,31.25
2023-02-11T18:21:51.140Z,29.00
2023-02-11T18:24:19.114Z,30.13
2023-02-11T18:26:46.890Z,29.88
2023-02-11T18:29:14.880Z,30.63
2023-02-11T18:31:42.795Z,31.90
2023-02-11T18:34:12.166Z,31.92
2023-02-11T18:36:40.073Z,33.58
2023-02-11T18:39:07.935Z,32.78
2023-02-11T18:41:35.873Z,30.27
2023-02-11T18:44:05.140Z,30.17
2023-02-11T18:46:58.288Z,28.73
2023-02-11T18:49:26.506Z,29.88
2023-02-11T18:51:55.132Z,30.77
2023-02-11T18:54:23.112Z,30.77
2023-02-11T18:56:51.133Z,28.20
2023-02-11T18:59:19.099Z,29.95
2023-02-11T19:01:47.168Z,30.20
2023-02-11T19:04:20.293Z,31.98
2023-02-11T19:09:20.901Z,29.80
2023-02-11T19:11:52.493Z,31.15
2023-02-11T19:14:27.422Z,31.70
2023-02-11T19:16:57.817Z,32.15
2023-02-11T19:19:29.015Z,33.83
2023-02-11T19:21:58.925Z,33.42
2023-02-11T19:24:28.663Z,34.80
2023-02-11T19:26:59.405Z,35.10
2023-02-11T19:29:28.708Z,36.95
2023-02-11T19:31:57.089Z,33.85
2023-02-11T19:34:25.471Z,48.08
2023-02-11T19:36:54.655Z,36.33
2023-02-11T19:39:25.072Z,38.67
2023-02-11T19:41:53.733Z,37.03
2023-02-11T19:44:21.791Z,33.67
2023-02-11T19:46:52.942Z,37.33
2023-02-11T19:49:26.651Z,36.67
2023-02-11T19:51:58.382Z,33.10
2023-02-11T19:54:27.413Z,38.22
2023-02-11T19:56:58.042Z,35.40
2023-02-11T19:59:26.190Z,34.53
2023-02-11T20:01:54.498Z,35.25
2023-02-11T20:04:24.462Z,43.78
2023-02-11T20:06:52.451Z,34.00
2023-02-11T20:09:20.508Z,35.30
2023-02-11T20:11:49.572Z,35.10
2023-02-11T20:14:17.699Z,35.90
2023-02-11T20:16:49.735Z,36.03
2023-02-11T20:19:20.621Z,35.70
2023-02-11T20:21:51.732Z,38.13
2023-02-11T20:24:20.534Z,39.35
2023-02-11T20:26:49.376Z,37.67
2023-02-11T20:29:18.374Z,40.13
2023-02-11T20:31:46.768Z,37.30
2023-02-11T20:34:17.208Z,38.78
2023-02-11T20:36:52.114Z,38.42
2023-02-11T20:39:22.564Z,40.65
2023-02-11T20:41:52.079Z,36.90
2023-02-11T20:44:22.539Z,38.92
2023-02-11T20:46:51.306Z,39.83
2023-02-11T20:49:21.785Z,38.55
2023-02-11T20:51:50.044Z,39.22
2023-02-11T20:54:20.360Z,42.85
2023-02-11T20:56:51.369Z,43.92
2023-02-11T20:59:21.320Z,43.25
2023-02-11T21:01:53.757Z,43.65
2023-02-11T21:04:25.218Z,42.53
2023-02-11T21:06:59.472Z,46.85
2023-02-11T21:09:30.912Z,45.42
2023-02-11T21:11:59.078Z,44.55
2023-02-11T21:14:29.401Z,45.45
2023-02-11T21:16:57.723Z,44.42
2023-02-11T21:19:25.989Z,45.00
2023-02-11T21:21:55.341Z,44.97
2023-02-11T21:24:23.988Z,47.55
2023-02-11T21:26:52.107Z,47.63
2023-02-11T21:29:20.226Z,49.10
2023-02-11T21:31:48.297Z,47.97
2023-02-11T21:34:16.415Z,48.85
2023-02-11T21:36:45.408Z,54.70
2023-02-11T21:39:14.105Z,53.97
2023-02-11T21:41:42.214Z,55.97
2023-02-11T21:44:10.275Z,52.65
2023-02-11T21:46:38.336Z,53.03
2023-02-11T21:49:06.449Z,49.47
2023-02-11T21:51:34.506Z,48.78
2023-02-11T21:54:03.339Z,47.60
2023-02-11T21:56:33.511Z,48.05
2023-02-11T21:59:02.545Z,49.10
2023-02-11T22:01:32.815Z,49.33
2023-02-11T22:04:01.423Z,50.38
2023-02-11T22:06:31.685Z,48.83
2023-02-11T22:09:02.952Z,48.85
2023-02-11T22:11:31.005Z,46.75
2023-02-11T22:13:59.441Z,48.28
2023-02-11T22:16:28.507Z,46.58
2023-02-11T22:18:58.858Z,46.00
2023-02-11T22:21:26.977Z,46.72
2023-02-11T22:23:56.612Z,45.55
2023-02-11T22:26:26.711Z,43.30
2023-02-11T22:28:55.209Z,45.55
2023-02-11T22:31:25.870Z,46.03
2023-02-11T22:33:54.101Z,45.28
2023-02-11T22:36:25.222Z,44.67
2023-02-11T22:38:53.883Z,44.70
2023-02-11T22:41:23.580Z,43.53
2023-02-11T22:43:51.497Z,44.38
2023-02-11T22:46:20.142Z,43.35
2023-02-11T22:48:49.215Z,43.63
2023-02-11T22:51:22.986Z,44.88
2023-02-11T22:54:03.043Z,43.17
2023-02-11T22:56:33.037Z,43.33
2023-02-11T22:59:04.738Z,44.63
2023-02-11T23:01:33.813Z,45.85
2023-02-11T23:04:04.381Z,46.17
2023-02-11T23:06:32.749Z,45.45
2023-02-11T23:09:01.376Z,45.88
2023-02-11T23:11:31.289Z,45.00
2023-02-11T23:13:59.318Z,43.00
2023-02-11T23:16:33.583Z,44.05
2023-02-11T23:19:05.321Z,44.13
2023-02-11T23:21:36.667Z,44.00
2023-02-11T23:24:11.946Z,44.92
2023-02-11T23:26:41.266Z,45.88
2023-02-11T23:29:10.304Z,44.97
2023-02-11T23:31:43.522Z,44.55
2023-02-11T23:34:12.736Z,45.70
2023-02-11T23:36:40.660Z,45.85
2023-02-11T23:39:08.629Z,49.22
2023-02-11T23:41:36.435Z,44.08
2023-02-11T23:44:04.405Z,45.38
2023-02-11T23:46:32.384Z,40.78
2023-02-11T23:49:00.465Z,39.53
2023-02-11T23:51:28.493Z,37.13
2023-02-11T23:53:57.357Z,36.53
2023-02-11T23:56:27.839Z,33.67
2023-02-11T23:58:58.812Z,34.78
